Time;durP1;ratioP1;P1;durP2;ratioP2;P2;SDS_P1;SDS_P2;PMS_P1;PMS_P2;Temp;Humidity;BMP_temperature;BMP_pressure;BME280_temperature;BME280_humidity;BME280_pressure;Samples;Min_cycle;Max_cycle;Signal;HPM_P1;HPM_P2
2023/11/26 00:02:02;;;;;;;12.90;7.70;;;;;;;7.40;66.85;98106.72;108249;1285;21983;-62
2023/11/26 00:04:28;;;;;;;12.50;6.90;;;;;;;7.39;66.76;98091.40;108170;1283;23029;-63
2023/11/26 00:06:54;;;;;;;14.70;7.50;;;;;;;7.37;66.64;98074.35;108205;1284;23685;-63
2023/11/26 00:09:22;;;;;;;15.10;8.60;;;;;;;7.37;66.90;98061.80;108223;1285;21986;-64
2023/11/26 00:11:48;;;;;;;15.20;8.50;;;;;;;7.37;66.86;98062.53;108227;1285;21986;-64
2023/11/26 00:14:14;;;;;;;12.20;7.30;;;;;;;7.35;66.80;98072.36;108235;1284;21986;-63
2023/11/26 00:16:40;;;;;;;14.70;7.50;;;;;;;7.36;66.74;98075.62;108216;1274;21992;-67
2023/11/26 00:19:05;;;;;;;15.10;7.70;;;;;;;7.36;66.97;98065.51;108219;1277;21986;-69
2023/11/26 00:21:32;;;;;;;15.80;7.50;;;;;;;7.35;67.01;98062.58;108190;1284;21989;-67
2023/11/26 00:24:00;;;;;;;14.20;8.20;;;;;;;7.37;66.60;98055.73;108195;1285;21988;-64
2023/11/26 00:26:26;;;;;;;15.70;8.20;;;;;;;7.36;66.84;98046.33;108220;1281;21995;-66
2023/11/26 00:28:55;;;;;;;13.20;6.90;;;;;;;7.34;66.70;98042.71;108146;1284;23121;-63
2023/11/26 00:31:21;;;;;;;13.80;7.20;;;;;;;7.32;66.69;98043.67;108235;1275;21995;-66
2023/11/26 00:33:49;;;;;;;12.70;7.00;;;;;;;7.31;66.90;98041.27;108202;1278;21989;-64
2023/11/26 00:36:15;;;;;;;14.20;7.10;;;;;;;7.28;66.72;98036.66;108088;1284;21989;-63
2023/11/26 00:38:45;;;;;;;17.00;8.20;;;;;;;7.25;66.67;98039.39;108204;1274;21989;-67
2023/11/26 00:41:10;;;;;;;13.90;6.90;;;;;;;7.24;66.46;98039.27;108208;1277;21989;-64
2023/11/26 00:43:36;;;;;;;14.20;7.20;;;;;;;7.23;66.38;98034.23;108183;1284;22026;-64
2023/11/26 00:46:02;;;;;;;11.60;6.20;;;;;;;7.19;66.32;98027.73;108241;1273;21997;-68
2023/11/26 00:48:28;;;;;;;12.80;5.80;;;;;;;7.10;66.58;98017.79;108265;1285;21983;-70
2023/11/26 00:50:54;;;;;;;10.70;5.70;;;;;;;7.05;66.55;98012.38;108203;1284;21987;-68
2023/11/26 00:53:20;;;;;;;10.80;5.90;;;;;;;7.04;66.94;98004.41;108201;1285;21991;-69
2023/11/26 00:55:46;;;;;;;11.60;5.30;;;;;;;7.03;66.78;98007.59;108197;1277;21988;-67
2023/11/26 00:58:11;;;;;;;11.50;6.70;;;;;;;6.99;66.89;98022.36;108220;1285;21991;-66
2023/11/26 01:00:41;;;;;;;10.40;6.00;;;;;;;6.95;66.58;98030.69;108245;1284;21988;-68
2023/11/26 01:03:07;;;;;;;14.20;6.30;;;;;;;6.92;66.78;98026.09;108243;1285;22010;-62
2023/11/26 01:05:33;;;;;;;16.50;7.80;;;;;;;6.90;66.65;98022.84;108091;1285;21985;-68
2023/11/26 01:08:02;;;;;;;10.80;6.10;;;;;;;6.87;66.91;98022.94;108215;1285;22015;-68
2023/11/26 01:10:27;;;;;;;11.40;6.00;;;;;;;6.84;67.06;98019.57;108186;1277;21989;-64
2023/11/26 01:12:53;;;;;;;12.00;6.00;;;;;;;6.82;67.05;98016.31;108214;1274;21994;-64
2023/11/26 01:15:19;;;;;;;13.00;6.60;;;;;;;6.78;66.94;98014.52;108236;1281;21983;-62
2023/11/26 01:17:45;;;;;;;16.70;6.70;;;;;;;6.76;66.75;98015.48;108233;1281;21985;-62
2023/11/26 01:20:12;;;;;;;11.10;6.20;;;;;;;6.72;67.07;98019.47;108236;1284;21989;-67
2023/11/26 01:22:38;;;;;;;11.60;6.10;;;;;;;6.72;66.55;98022.76;108277;1274;24397;-62
2023/11/26 01:25:07;;;;;;;12.40;6.60;;;;;;;6.71;66.74;98020.70;106016;1281;1002444;-69
2023/11/26 01:27:33;;;;;;;12.70;7.10;;;;;;;6.67;66.96;98019.23;108275;1285;21994;-61
2023/11/26 01:29:59;;;;;;;12.90;7.30;;;;;;;6.63;67.19;98020.64;108244;1284;22448;-61
2023/11/26 01:32:25;;;;;;;15.60;7.60;;;;;;;6.59;67.03;98013.81;108203;1284;21985;-61
2023/11/26 01:34:51;;;;;;;12.30;7.30;;;;;;;6.57;67.09;98009.85;108224;1285;22078;-61
2023/11/26 01:37:17;;;;;;;11.70;6.90;;;;;;;6.53;67.31;98001.78;108202;1278;21988;-61
2023/11/26 01:39:42;;;;;;;14.10;6.90;;;;;;;6.51;67.26;98000.48;108257;1277;21989;-61
2023/11/26 01:42:09;;;;;;;11.50;6.90;;;;;;;6.44;67.30;97995.63;108252;1285;21992;-62
2023/11/26 01:44:35;;;;;;;13.50;7.60;;;;;;;6.38;67.41;97985.05;108235;1284;21989;-66
2023/11/26 01:47:06;;;;;;;16.80;7.50;;;;;;;6.33;67.92;97989.89;108232;1283;21986;-62
2023/11/26 01:49:33;;;;;;;12.40;7.50;;;;;;;6.28;67.97;97997.21;108226;1283;21999;-66
2023/11/26 01:51:59;;;;;;;14.30;7.60;;;;;;;6.24;68.16;97993.88;108244;1284;21986;-63
2023/11/26 01:54:25;;;;;;;15.70;7.10;;;;;;;6.21;68.01;97973.94;108255;1284;21987;-65
2023/11/26 01:56:52;;;;;;;14.00;6.90;;;;;;;6.17;67.87;97958.74;108218;1285;23080;-61
2023/11/26 01:59:17;;;;;;;12.70;7.30;;;;;;;6.17;67.68;97953.02;108194;1284;21989;-61
2023/11/26 02:01:43;;;;;;;10.10;6.20;;;;;;;6.16;67.46;97958.45;108145;1285;22025;-61
2023/11/26 02:04:09;;;;;;;13.70;6.60;;;;;;;6.12;68.04;97960.48;108134;1284;21986;-61
2023/11/26 02:06:34;;;;;;;12.60;7.20;;;;;;;6.08;68.20;97958.69;108175;1277;21987;-60
2023/11/26 02:09:01;;;;;;;14.30;7.30;;;;;;;6.08;68.06;97955.03;108196;1284;23519;-66
2023/11/26 02:11:26;;;;;;;11.10;6.70;;;;;;;6.07;68.09;97947.41;108203;1284;21993;-65
2023/11/26 02:13:52;;;;;;;13.00;6.40;;;;;;;6.03;68.27;97940.76;108186;1284;21981;-61
2023/11/26 02:16:18;;;;;;;11.40;6.50;;;;;;;6.01;68.13;97928.98;108220;1283;21996;-60
2023/11/26 02:18:44;;;;;;;13.80;7.30;;;;;;;6.00;68.34;97930.72;108169;1277;21980;-61
2023/11/26 02:21:11;;;;;;;16.30;8.10;;;;;;;5.99;68.58;97934.25;108213;1274;21997;-61
2023/11/26 02:23:37;;;;;;;16.30;7.70;;;;;;;5.99;68.63;97934.93;108235;1278;21989;-61
2023/11/26 02:26:06;;;;;;;11.20;6.70;;;;;;;5.99;68.29;97927.97;108181;1280;21988;-65
2023/11/26 02:28:32;;;;;;;13.80;7.40;;;;;;;5.95;68.31;97915.91;108209;1285;22737;-66
2023/11/26 02:30:58;;;;;;;16.00;7.40;;;;;;;5.92;68.45;97902.94;108213;1277;21994;-61
2023/11/26 02:33:24;;;;;;;14.50;7.50;;;;;;;5.89;68.76;97902.38;108225;1280;21987;-64
2023/11/26 02:35:50;;;;;;;14.30;7.80;;;;;;;5.83;69.26;97898.72;108233;1274;21989;-64
2023/11/26 02:38:16;;;;;;;16.30;9.00;;;;;;;5.82;69.23;97895.10;108282;1285;21986;-63
2023/11/26 02:40:41;;;;;;;16.00;8.40;;;;;;;5.81;69.56;97878.41;107521;1281;1002798;-60
2023/11/26 02:43:07;;;;;;;16.50;8.20;;;;;;;5.79;69.73;97867.51;108243;1284;22003;-67
2023/11/26 02:45:33;;;;;;;20.50;9.70;;;;;;;5.77;69.84;97856.44;108203;1285;21989;-60
2023/11/26 02:47:59;;;;;;;15.40;9.10;;;;;;;5.75;70.10;97845.55;108185;1284;21987;-60
2023/11/26 02:50:25;;;;;;;16.60;8.60;;;;;;;5.75;69.82;97843.10;108212;1285;21979;-68
2023/11/26 02:52:50;;;;;;;17.10;9.60;;;;;;;5.72;70.18;97839.73;108213;1285;21984;-65
2023/11/26 02:55:18;;;;;;;15.90;9.00;;;;;;;5.72;70.16;97839.23;108217;1285;22447;-60
2023/11/26 02:57:44;;;;;;;18.10;9.80;;;;;;;5.71;70.58;97842.41;108307;1277;21983;-67
2023/11/26 03:00:19;;;;;;;17.40;9.80;;;;;;;5.67;71.03;97841.83;108269;1281;21986;-66
2023/11/26 03:02:48;;;;;;;17.50;10.00;;;;;;;5.66;71.17;97845.66;108218;1285;21985;-64
2023/11/26 03:05:21;;;;;;;15.80;9.70;;;;;;;5.63;71.31;97847.48;108222;1284;22026;-60
2023/11/26 03:07:50;;;;;;;15.20;8.90;;;;;;;5.66;71.37;97842.55;108227;1285;21984;-66
2023/11/26 03:13:11;;;;;;;15.10;8.80;;;;;;;5.67;71.05;97836.95;108102;1284;22736;-66
2023/11/26 03:15:40;;;;;;;15.60;9.20;;;;;;;5.69;71.16;97836.88;108296;1274;22001;-67
2023/11/26 03:18:12;;;;;;;13.90;7.90;;;;;;;5.64;72.08;97825.03;108291;1275;21988;-66
2023/11/26 03:20:40;;;;;;;17.40;8.30;;;;;;;5.60;71.80;97822.21;108322;1280;21985;-61
2023/11/26 03:23:05;;;;;;;11.00;7.80;;;;;;;5.59;71.72;97802.05;108191;1285;21982;-67
2023/11/26 03:25:31;;;;;;;12.60;7.10;;;;;;;5.60;72.05;97786.02;108220;1285;21986;-62
2023/11/26 03:28:00;;;;;;;14.70;8.10;;;;;;;5.60;72.23;97783.58;108339;1281;21992;-65
2023/11/26 03:30:26;;;;;;;13.10;7.30;;;;;;;5.60;71.67;97785.16;107548;1285;1002581;-63
2023/11/26 03:32:55;;;;;;;12.20;7.50;;;;;;;5.56;71.71;97790.85;108242;1285;21989;-67
2023/11/26 03:35:20;;;;;;;18.50;8.30;;;;;;;5.58;71.51;97785.20;108299;1274;21988;-63
2023/11/26 03:37:47;;;;;;;12.00;6.80;;;;;;;5.59;71.46;97778.73;108272;1285;21960;-61
2023/11/26 03:40:12;;;;;;;11.80;7.40;;;;;;;5.58;72.08;97768.86;108270;1285;21988;-61
2023/11/26 03:42:39;;;;;;;14.70;6.70;;;;;;;5.57;76.16;97762.30;108203;1281;22070;-68
2023/11/26 03:45:06;;;;;;;11.50;7.00;;;;;;;5.57;73.47;97769.77;108326;1284;21977;-66
2023/11/26 03:47:35;;;;;;;13.30;7.00;;;;;;;5.58;72.58;97754.94;108327;1284;22461;-61
2023/11/26 03:50:05;;;;;;;11.60;6.30;;;;;;;5.60;71.98;97754.70;108260;1277;23608;-68
2023/11/26 03:52:30;;;;;;;12.20;6.70;;;;;;;5.61;71.72;97749.79;108227;1278;23634;-67
2023/11/26 03:54:56;;;;;;;13.60;6.30;;;;;;;5.60;71.83;97747.92;108270;1277;21986;-62
2023/11/26 03:57:22;;;;;;;10.30;6.40;;;;;;;5.59;71.55;97744.12;108267;1277;21982;-66
2023/11/26 03:59:47;;;;;;;9.90;5.90;;;;;;;5.55;72.98;97741.81;108288;1284;22449;-67
2023/11/26 04:02:13;;;;;;;12.80;6.30;;;;;;;5.57;72.98;97740.71;108330;1284;21986;-61
2023/11/26 04:04:38;;;;;;;9.50;5.60;;;;;;;5.58;73.30;97723.64;108333;1277;22841;-60
2023/11/26 04:07:04;;;;;;;10.70;5.70;;;;;;;5.53;74.43;97717.39;108298;1285;21995;-66
2023/11/26 04:09:30;;;;;;;9.30;5.90;;;;;;;5.55;73.25;97717.49;108203;1284;21991;-66
2023/11/26 04:11:56;;;;;;;11.60;5.90;;;;;;;5.56;72.79;97712.92;108121;1277;21998;-61
2023/11/26 04:14:23;;;;;;;10.00;5.50;;;;;;;5.60;72.24;97725.15;108133;1285;21990;-62
2023/11/26 04:16:49;;;;;;;13.30;5.70;;;;;;;5.59;72.02;97724.31;108259;1285;22030;-61
2023/11/26 04:19:17;;;;;;;10.50;5.30;;;;;;;5.57;72.37;97708.02;108197;1278;23474;-67
2023/11/26 04:21:45;;;;;;;8.90;4.90;;;;;;;5.53;74.87;97687.10;108151;1285;21995;-61
2023/11/26 04:24:12;;;;;;;8.90;5.20;;;;;;;5.55;75.87;97675.56;108187;1284;22140;-64
2023/11/26 04:26:38;;;;;;;9.50;4.50;;;;;;;5.47;80.68;97667.65;108285;1285;21997;-60
2023/11/26 04:29:03;;;;;;;8.20;4.30;;;;;;;5.44;84.72;97670.20;108107;1284;22023;-65
2023/11/26 04:31:29;;;;;;;8.60;4.50;;;;;;;5.39;85.41;97669.17;108174;1285;21989;-66
2023/11/26 04:33:55;;;;;;;7.60;3.60;;;;;;;5.32;91.71;97659.82;108181;1280;22032;-61
2023/11/26 04:36:21;;;;;;;6.60;3.10;;;;;;;5.25;94.70;97650.52;108111;1285;21989;-67
2023/11/26 04:38:47;;;;;;;6.50;3.70;;;;;;;5.28;87.52;97640.51;108164;1280;21986;-60
2023/11/26 04:41:12;;;;;;;6.20;3.80;;;;;;;5.30;83.89;97634.85;108120;1285;23062;-66
2023/11/26 04:43:38;;;;;;;7.00;3.30;;;;;;;5.30;83.08;97622.36;108129;1283;22025;-64
2023/11/26 04:46:04;;;;;;;7.40;3.80;;;;;;;5.20;88.59;97619.89;108256;1281;21986;-65
2023/11/26 04:48:30;;;;;;;9.00;3.90;;;;;;;5.11;94.90;97614.82;108255;1285;21991;-63
2023/11/26 04:50:56;;;;;;;7.30;3.80;;;;;;;5.15;90.25;97611.23;108192;1285;22116;-65
